createdAt,value
2023-02-14T00:01:58.356Z,2.50
2023-02-14T00:04:29.853Z,2.50
2023-02-14T00:06:57.832Z,2.60
2023-02-14T00:09:26.210Z,2.50
2023-02-14T00:11:54.123Z,2.40
2023-02-14T00:14:39.614Z,2.40
2023-02-14T00:17:08.944Z,2.30
2023-02-14T00:19:37.056Z,2.20
2023-02-14T00:22:05.763Z,2.30
2023-02-14T00:24:33.867Z,2.20
2023-02-14T00:29:31.161Z,2.10
2023-02-14T00:31:59.684Z,2.20
2023-02-14T00:34:29.855Z,2.20
2023-02-14T00:36:58.738Z,2.30
2023-02-14T00:39:26.825Z,2.30
2023-02-14T00:41:54.946Z,2.40
2023-02-14T00:44:23.132Z,2.40
2023-02-14T00:46:51.084Z,2.40
2023-02-14T00:49:19.391Z,2.30
2023-02-14T00:51:48.607Z,2.30
2023-02-14T00:54:16.547Z,2.20
2023-02-14T00:56:44.471Z,2.10
2023-02-14T00:59:12.453Z,2.20
2023-02-14T01:01:40.592Z,2.10
2023-02-14T01:04:08.852Z,2.10
2023-02-14T01:06:37.099Z,2.00
2023-02-14T01:09:06.441Z,2.00
2023-02-14T01:11:34.899Z,2.10
2023-02-14T01:14:03.043Z,2.00
2023-02-14T01:16:31.343Z,2.00
2023-02-14T01:19:01.155Z,1.90
2023-02-14T01:21:30.773Z,1.80
2023-02-14T01:24:00.496Z,1.80
2023-02-14T01:26:30.552Z,1.80
2023-02-14T01:28:58.933Z,1.80
2023-02-14T01:31:29.077Z,1.70
2023-02-14T01:33:57.814Z,1.70
2023-02-14T01:36:27.317Z,1.70
2023-02-14T01:38:56.934Z,1.60
2023-02-14T01:41:25.870Z,1.70
2023-02-14T01:43:58.732Z,1.70
2023-02-14T01:46:28.830Z,1.50
2023-02-14T01:49:02.037Z,1.40
2023-02-14T01:51:31.217Z,1.30
2023-02-14T01:54:00.069Z,1.30
2023-02-14T01:56:32.198Z,1.20
2023-02-14T01:59:05.114Z,1.20
2023-02-14T02:01:33.349Z,1.10
2023-02-14T02:04:08.127Z,1.10
2023-02-14T02:06:41.496Z,1.10
2023-02-14T02:09:13.995Z,1.10
2023-02-14T02:11:42.654Z,1.10
2023-02-14T02:14:15.816Z,1.30
2023-02-14T02:16:54.404Z,1.30
2023-02-14T02:20:18.647Z,1.20
2023-02-14T02:23:27.227Z,1.10
2023-02-14T02:26:21.781Z,1.00
2023-02-14T02:29:09.613Z,1.00
2023-02-14T02:32:03.768Z,1.00
2023-02-14T02:35:05.545Z,0.90
2023-02-14T02:37:41.685Z,1.00
2023-02-14T02:40:23.383Z,0.90
2023-02-14T02:43:02.211Z,0.90
2023-02-14T02:46:02.344Z,0.90
2023-02-14T02:48:38.327Z,0.80
2023-02-14T02:51:27.040Z,0.80
2023-02-14T02:54:03.588Z,0.90
2023-02-14T02:56:56.663Z,0.90
2023-02-14T02:59:27.154Z,0.80
2023-02-14T03:02:01.696Z,0.90
2023-02-14T03:04:47.575Z,0.70
2023-02-14T03:07:33.119Z,0.70
2023-02-14T03:10:06.367Z,0.60
2023-02-14T03:13:11.895Z,0.60
2023-02-14T03:15:56.734Z,0.60
2023-02-14T03:19:01.826Z,0.70
2023-02-14T03:21:36.042Z,0.80
2023-02-14T03:24:11.117Z,0.70
2023-02-14T03:26:48.864Z,0.60
2023-02-14T03:29:26.568Z,0.70
2023-02-14T03:32:01.973Z,0.60
2023-02-14T03:34:36.834Z,0.60
2023-02-14T03:37:12.003Z,0.50
2023-02-14T03:39:44.995Z,0.40
2023-02-14T03:42:19.036Z,0.50
2023-02-14T03:44:50.249Z,0.30
2023-02-14T03:47:21.722Z,0.40
2023-02-14T03:49:53.950Z,0.30
2023-02-14T03:52:23.986Z,0.30
2023-02-14T03:54:56.659Z,0.40
2023-02-14T03:57:30.037Z,0.40
2023-02-14T03:59:58.412Z,0.20
2023-02-14T04:02:32.523Z,0.30
2023-02-14T04:05:02.759Z,0.40
2023-02-14T04:07:30.816Z,0.30
2023-02-14T04:09:59.127Z,0.20
2023-02-14T04:12:37.550Z,0.20
2023-02-14T04:15:07.378Z,0.20
2023-02-14T04:17:52.777Z,0.20
2023-02-14T04:20:21.097Z,0.20
2023-02-14T04:22:49.294Z,0.20
2023-02-14T04:25:20.825Z,0.20
2023-02-14T04:27:50.339Z,0.30
2023-02-14T04:30:20.877Z,0.40
2023-02-14T04:32:50.389Z,0.50
2023-02-14T04:35:18.648Z,0.50
2023-02-14T04:37:46.733Z,0.40
2023-02-14T04:40:17.534Z,0.50
2023-02-14T04:42:45.659Z,0.50
2023-02-14T04:45:15.124Z,0.50
2023-02-14T04:47:43.111Z,0.50
2023-02-14T04:50:11.443Z,0.60
2023-02-14T04:52:39.742Z,0.50
2023-02-14T04:55:09.520Z,0.40
2023-02-14T04:57:37.754Z,0.40
2023-02-14T05:00:06.669Z,0.30
2023-02-14T05:02:35.993Z,0.20
2023-02-14T05:05:04.176Z,0.10
2023-02-14T05:07:32.184Z,0.10
2023-02-14T05:10:00.383Z,0.10
2023-02-14T05:12:28.699Z,0.30
2023-02-14T05:14:57.652Z,0.30
2023-02-14T05:17:25.777Z,0.30
2023-02-14T05:19:55.174Z,0.20
2023-02-14T05:22:23.149Z,0.20
2023-02-14T05:24:51.060Z,0.20
2023-02-14T05:27:19.027Z,0.20
2023-02-14T05:29:47.025Z,0.30
2023-02-14T05:32:15.120Z,0.30
2023-02-14T05:34:43.080Z,0.30
2023-02-14T05:37:12.754Z,0.10
2023-02-14T05:39:40.881Z,0.10
2023-02-14T05:44:35.669Z,0.20
2023-02-14T05:47:03.864Z,0.20
2023-02-14T05:49:31.928Z,0.20
2023-02-14T05:51:59.950Z,0.10
2023-02-14T05:54:29.604Z,0.20
2023-02-14T05:56:57.549Z,0.30
2023-02-14T05:59:25.465Z,0.40
2023-02-14T06:01:53.612Z,0.60
2023-02-14T06:04:21.933Z,0.70
2023-02-14T06:06:50.112Z,0.80
2023-02-14T06:09:19.865Z,0.80
2023-02-14T06:11:49.263Z,0.90
2023-02-14T06:14:17.273Z,1.00
2023-02-14T06:16:45.267Z,1.00
2023-02-14T06:19:13.329Z,1.10
2023-02-14T06:21:41.718Z,1.10
2023-02-14T06:24:09.743Z,1.10
2023-02-14T06:26:37.652Z,1.10
2023-02-14T06:29:07.334Z,1.20
2023-02-14T06:31:35.469Z,1.20
2023-02-14T06:34:03.674Z,1.20
2023-02-14T06:36:31.850Z,1.20
2023-02-14T06:39:00.110Z,1.20
2023-02-14T06:41:28.232Z,1.20
2023-02-14T06:43:56.205Z,1.30
2023-02-14T06:46:25.693Z,1.30
2023-02-14T06:48:53.642Z,1.30
2023-02-14T06:51:21.755Z,1.30
2023-02-14T06:53:49.712Z,1.20
2023-02-14T06:56:17.739Z,1.20
2023-02-14T06:58:45.674Z,1.30
2023-02-14T07:01:13.825Z,1.20
2023-02-14T07:03:43.525Z,1.20
2023-02-14T07:06:11.590Z,1.10
2023-02-14T07:08:39.510Z,1.10
2023-02-14T07:11:07.559Z,1.10
2023-02-14T07:13:35.485Z,1.10
2023-02-14T07:16:05.922Z,1.00
2023-02-14T07:18:34.227Z,1.00
2023-02-14T07:21:03.659Z,1.10
2023-02-14T07:23:32.731Z,1.10
2023-02-14T07:26:00.704Z,1.10
2023-02-14T07:28:30.452Z,1.00
2023-02-14T07:31:01.390Z,1.10
2023-02-14T07:33:29.529Z,1.10
2023-02-14T07:35:58.175Z,1.20
2023-02-14T07:38:30.462Z,1.20
2023-02-14T07:40:59.033Z,1.20
2023-02-14T07:43:27.388Z,1.30
2023-02-14T07:45:55.776Z,1.30
2023-02-14T07:48:23.784Z,1.40
2023-02-14T07:50:51.743Z,1.40
2023-02-14T07:53:19.757Z,1.50
2023-02-14T07:55:51.788Z,1.40
2023-02-14T07:58:20.161Z,1.50
2023-02-14T08:00:48.273Z,1.60
2023-02-14T08:03:16.767Z,1.40
2023-02-14T08:05:44.920Z,1.40
2023-02-14T08:08:12.952Z,1.50
2023-02-14T08:10:40.949Z,1.50
2023-02-14T08:13:09.400Z,1.50
2023-02-14T08:15:55.026Z,1.70
2023-02-14T08:18:24.272Z,1.70
2023-02-14T08:20:52.943Z,1.80
2023-02-14T08:23:22.132Z,1.90
2023-02-14T08:25:51.716Z,1.80
2023-02-14T08:28:24.732Z,1.80
2023-02-14T08:30:53.294Z,1.90
2023-02-14T08:33:21.729Z,1.90
2023-02-14T08:35:49.920Z,1.90
2023-02-14T08:38:18.058Z,1.80
2023-02-14T08:40:47.507Z,1.90
2023-02-14T08:43:16.109Z,1.90
2023-02-14T08:45:46.508Z,1.90
2023-02-14T08:48:15.273Z,1.90
2023-02-14T08:50:43.813Z,2.00
2023-02-14T08:53:14.184Z,2.00
2023-02-14T08:55:42.906Z,2.00
2023-02-14T08:58:11.695Z,1.90
2023-02-14T09:00:39.785Z,2.00
2023-02-14T09:03:11.027Z,2.10
2023-02-14T09:05:39.094Z,2.10
2023-02-14T09:08:07.997Z,2.00
2023-02-14T09:10:39.056Z,1.90
2023-02-14T09:13:08.030Z,2.10
2023-02-14T09:15:36.857Z,2.00
2023-02-14T09:18:05.163Z,2.10
2023-02-14T09:20:34.768Z,2.20
2023-02-14T09:23:02.882Z,2.30
2023-02-14T09:25:31.351Z,2.20
2023-02-14T09:27:59.347Z,2.20
2023-02-14T09:30:27.992Z,2.20
2023-02-14T09:32:56.016Z,2.30
2023-02-14T09:35:24.164Z,2.40
2023-02-14T09:38:11.152Z,2.30
2023-02-14T09:40:39.464Z,2.20
2023-02-14T09:43:18.347Z,2.30
2023-02-14T09:45:51.757Z,2.40
2023-02-14T09:48:28.358Z,2.20
2023-02-14T09:51:00.805Z,2.10
2023-02-14T09:53:31.751Z,2.20
2023-02-14T09:56:07.464Z,2.20
2023-02-14T09:58:42.027Z,1.90
2023-02-14T10:01:20.383Z,2.00
2023-02-14T10:04:17.154Z,2.00
2023-02-14T10:06:50.295Z,2.00
2023-02-14T10:09:39.008Z,2.10
2023-02-14T10:12:15.583Z,2.00
2023-02-14T10:14:44.865Z,2.10
2023-02-14T10:17:18.189Z,2.20
2023-02-14T10:19:50.708Z,2.20
2023-02-14T10:22:22.389Z,2.40
2023-02-14T10:24:55.757Z,2.30
2023-02-14T10:27:33.496Z,1.90
2023-02-14T10:30:03.510Z,1.60
2023-02-14T10:32:46.619Z,1.90
2023-02-14T10:35:24.574Z,2.10
2023-02-14T10:38:02.193Z,2.10
2023-02-14T10:40:45.743Z,2.00
2023-02-14T10:43:23.138Z,1.80
2023-02-14T10:46:00.352Z,1.80
2023-02-14T10:48:39.327Z,2.10
2023-02-14T10:51:16.212Z,2.00
2023-02-14T10:53:54.992Z,1.90
2023-02-14T10:56:33.564Z,1.80
2023-02-14T10:59:19.860Z,2.20
2023-02-14T11:01:49.695Z,2.20
2023-02-14T11:04:19.242Z,2.60
2023-02-14T11:06:49.235Z,2.60
2023-02-14T11:09:17.948Z,2.40
2023-02-14T11:11:51.890Z,2.60
2023-02-14T11:14:22.800Z,2.60
2023-02-14T11:16:59.983Z,2.60
2023-02-14T11:19:30.237Z,2.60
2023-02-14T11:22:00.131Z,2.80
2023-02-14T11:24:32.461Z,3.00
2023-02-14T11:27:06.086Z,2.90
2023-02-14T11:29:37.851Z,2.80
2023-02-14T11:32:11.143Z,2.60
2023-02-14T11:34:42.520Z,2.70
2023-02-14T11:37:27.975Z,2.70
2023-02-14T11:39:58.010Z,2.70
2023-02-14T11:42:43.726Z,2.80
2023-02-14T11:45:31.173Z,2.90
2023-02-14T11:48:21.995Z,2.40
2023-02-14T11:51:00.275Z,2.40
2023-02-14T11:53:33.281Z,2.50
2023-02-14T11:56:02.894Z,2.50
2023-02-14T11:58:40.727Z,2.60
2023-02-14T12:01:12.477Z,2.70
2023-02-14T12:03:46.765Z,2.80
2023-02-14T12:06:24.710Z,2.70
2023-02-14T12:08:53.175Z,2.60
2023-02-14T12:11:22.884Z,2.70
2023-02-14T12:13:57.456Z,2.70
2023-02-14T12:16:31.400Z,3.00
2023-02-14T12:19:03.905Z,3.00
2023-02-14T12:21:48.211Z,3.10
2023-02-14T12:24:31.771Z,2.90
2023-02-14T12:27:03.004Z,2.60
2023-02-14T12:29:38.398Z,2.40
2023-02-14T12:32:17.537Z,2.40
2023-02-14T12:34:45.647Z,2.70
2023-02-14T12:37:21.112Z,3.00
2023-02-14T12:40:06.988Z,2.90
2023-02-14T12:42:54.305Z,2.90
2023-02-14T12:45:30.838Z,3.10
2023-02-14T12:48:06.847Z,3.30
2023-02-14T12:50:44.163Z,3.20
2023-02-14T12:53:48.955Z,3.00
2023-02-14T12:56:28.138Z,3.00
2023-02-14T12:59:07.267Z,3.00
2023-02-14T13:02:03.857Z,3.10
2023-02-14T13:05:01.632Z,3.10
2023-02-14T13:08:02.285Z,3.10
2023-02-14T13:10:46.525Z,3.20
2023-02-14T13:13:24.439Z,3.30
2023-02-14T13:16:00.401Z,3.20
2023-02-14T13:18:40.748Z,3.20
2023-02-14T13:21:15.205Z,3.20
2023-02-14T13:23:46.587Z,3.40
2023-02-14T13:26:17.304Z,3.40
2023-02-14T13:28:51.256Z,3.40
2023-02-14T13:31:21.882Z,3.20
2023-02-14T13:33:55.211Z,3.20
2023-02-14T13:36:24.576Z,3.20
2023-02-14T13:41:24.516Z,3.20
2023-02-14T13:43:56.322Z,3.20
2023-02-14T13:46:53.450Z,3.30
2023-02-14T13:49:34.631Z,3.30
2023-02-14T13:52:04.719Z,3.30
2023-02-14T13:54:37.129Z,3.40
2023-02-14T13:57:28.137Z,3.30
2023-02-14T14:00:47.825Z,3.20
2023-02-14T14:03:37.077Z,3.30
2023-02-14T14:06:09.125Z,3.40
2023-02-14T14:08:46.064Z,3.30
2023-02-14T14:12:01.276Z,3.00
2023-02-14T14:14:37.216Z,3.20
2023-02-14T14:17:27.644Z,3.30
2023-02-14T14:19:57.902Z,3.30
2023-02-14T14:22:28.089Z,3.30
2023-02-14T14:25:00.536Z,3.30
2023-02-14T14:27:32.941Z,3.50
2023-02-14T14:30:02.644Z,3.50
2023-02-14T14:32:42.035Z,3.60
2023-02-14T14:35:19.655Z,3.50
2023-02-14T14:37:52.760Z,3.30
2023-02-14T14:40:26.645Z,3.30
2023-02-14T14:42:56.670Z,3.50
2023-02-14T14:45:27.431Z,3.50
2023-02-14T14:47:59.505Z,3.50
2023-02-14T14:50:29.525Z,3.40
2023-02-14T14:53:03.036Z,3.50
2023-02-14T14:55:44.605Z,3.50
2023-02-14T14:58:33.850Z,3.50
2023-02-14T15:01:02.295Z,3.50
2023-02-14T15:03:30.998Z,3.50
2023-02-14T15:06:10.561Z,3.50
2023-02-14T15:08:39.991Z,3.50
2023-02-14T15:11:10.854Z,3.60
2023-02-14T15:13:53.849Z,3.60
2023-02-14T15:16:27.406Z,3.50
2023-02-14T15:18:58.798Z,3.60
2023-02-14T15:21:27.498Z,3.50
2023-02-14T15:23:57.296Z,3.40
2023-02-14T15:26:31.482Z,3.40
2023-02-14T15:29:01.441Z,3.40
2023-02-14T15:31:35.768Z,3.40
2023-02-14T15:34:04.962Z,3.40
2023-02-14T15:36:35.408Z,3.40
2023-02-14T15:39:07.778Z,3.50
2023-02-14T15:41:36.190Z,3.40
2023-02-14T15:44:04.532Z,3.40
2023-02-14T15:46:36.629Z,3.40
2023-02-14T15:49:10.956Z,3.20
2023-02-14T15:51:40.510Z,3.20
2023-02-14T15:54:21.116Z,3.10
2023-02-14T15:56:52.691Z,2.90
2023-02-14T15:59:23.796Z,2.80
2023-02-14T16:01:56.534Z,2.80
2023-02-14T16:04:26.788Z,2.80
2023-02-14T16:07:17.402Z,2.90
2023-02-14T16:09:46.795Z,2.70
2023-02-14T16:12:30.676Z,2.80
2023-02-14T16:15:19.016Z,2.80
2023-02-14T16:17:47.633Z,2.90
2023-02-14T16:20:39.259Z,3.00
2023-02-14T16:23:22.894Z,2.90
2023-02-14T16:25:53.070Z,2.80
2023-02-14T16:28:22.009Z,2.70
2023-02-14T16:30:55.894Z,2.70
2023-02-14T16:33:26.342Z,2.70
2023-02-14T16:35:55.022Z,2.60
2023-02-14T16:38:23.591Z,2.60
2023-02-14T16:40:54.822Z,2.70
2023-02-14T16:43:22.938Z,2.60
2023-02-14T16:45:51.153Z,2.60
2023-02-14T16:48:19.594Z,2.50
2023-02-14T16:50:47.862Z,2.50
2023-02-14T16:53:25.954Z,2.50
2023-02-14T16:55:56.955Z,2.50
2023-02-14T16:58:28.225Z,2.50
2023-02-14T17:00:58.404Z,2.40
2023-02-14T17:03:26.779Z,2.30
2023-02-14T17:05:56.829Z,2.20
2023-02-14T17:08:25.091Z,2.20
2023-02-14T17:10:53.763Z,2.30
2023-02-14T17:13:26.227Z,2.30
2023-02-14T17:15:54.898Z,2.40
2023-02-14T17:18:24.629Z,2.40
2023-02-14T17:20:52.630Z,2.40
2023-02-14T17:23:21.492Z,2.40
2023-02-14T17:25:49.609Z,2.50
2023-02-14T17:28:17.622Z,2.50
2023-02-14T17:30:47.513Z,2.50
2023-02-14T17:33:15.534Z,2.40
2023-02-14T17:35:43.778Z,2.40
2023-02-14T17:38:11.752Z,2.30
2023-02-14T17:40:40.249Z,2.30
2023-02-14T17:43:08.398Z,2.30
2023-02-14T17:45:36.946Z,2.10
2023-02-14T17:48:06.705Z,2.10
2023-02-14T17:50:34.669Z,2.00
2023-02-14T17:53:03.510Z,2.10
2023-02-14T17:55:31.676Z,2.00
2023-02-14T17:57:59.646Z,1.90
2023-02-14T18:00:27.790Z,1.90
2023-02-14T18:02:55.714Z,1.80
2023-02-14T18:05:25.153Z,1.70
2023-02-14T18:07:53.202Z,1.60
2023-02-14T18:10:21.229Z,1.50
2023-02-14T18:12:49.253Z,1.60
2023-02-14T18:15:17.273Z,1.70
2023-02-14T18:17:46.222Z,1.60
2023-02-14T18:20:14.264Z,1.50
2023-02-14T18:22:43.762Z,1.50
2023-02-14T18:25:11.920Z,1.40
2023-02-14T18:27:40.212Z,1.50
2023-02-14T18:30:09.670Z,1.50
2023-02-14T18:32:37.935Z,1.40
2023-02-14T18:35:06.372Z,1.30
2023-02-14T18:37:34.390Z,1.30
2023-02-14T18:40:03.915Z,1.30
2023-02-14T18:42:31.858Z,1.20
2023-02-14T18:44:59.819Z,1.20
2023-02-14T18:47:27.972Z,1.20
2023-02-14T18:49:55.912Z,1.20
2023-02-14T18:52:24.468Z,1.10
2023-02-14T18:54:52.440Z,1.10
2023-02-14T18:57:21.764Z,1.00
2023-02-14T18:59:49.773Z,0.70
2023-02-14T19:02:17.799Z,0.60
2023-02-14T19:04:46.034Z,0.70
2023-02-14T19:07:16.445Z,0.60
2023-02-14T19:09:47.540Z,0.60
2023-02-14T19:12:15.672Z,0.60
2023-02-14T19:14:45.576Z,0.70
2023-02-14T19:25:02.487Z,0.50
2023-02-14T19:27:30.471Z,0.40
2023-02-14T19:30:00.191Z,0.50
2023-02-14T19:32:31.230Z,0.40
2023-02-14T19:34:59.260Z,0.70
2023-02-14T19:37:27.629Z,0.80
2023-02-14T19:40:01.573Z,0.90
2023-02-14T19:42:29.851Z,0.90
2023-02-14T19:44:59.217Z,0.90
2023-02-14T19:47:43.289Z,0.90
2023-02-14T19:50:13.828Z,1.00
2023-02-14T19:52:43.814Z,1.10
2023-02-14T19:55:21.199Z,1.00
2023-02-14T19:57:49.288Z,0.90
2023-02-14T20:00:20.947Z,1.00
2023-02-14T20:02:49.619Z,1.10
2023-02-14T20:05:21.510Z,1.20
2023-02-14T20:07:51.873Z,1.40
2023-02-14T20:10:20.266Z,1.10
2023-02-14T20:12:48.388Z,1.10
2023-02-14T20:15:16.723Z,1.20
2023-02-14T20:17:47.032Z,1.20
2023-02-14T20:20:16.693Z,1.10
2023-02-14T20:22:44.877Z,1.00
2023-02-14T20:25:12.930Z,1.00
2023-02-14T20:28:14.551Z,1.10
2023-02-14T20:30:43.215Z,1.30
2023-02-14T20:33:13.117Z,1.40
2023-02-14T20:35:41.717Z,1.30
2023-02-14T20:38:09.837Z,1.50
2023-02-14T20:40:40.124Z,1.50
2023-02-14T20:43:08.175Z,1.50
2023-02-14T20:45:36.290Z,1.50
2023-02-14T20:48:06.993Z,1.50
2023-02-14T20:50:36.618Z,1.50
2023-02-14T20:53:04.867Z,1.40
2023-02-14T20:55:32.937Z,1.40
2023-02-14T20:58:02.466Z,1.50
2023-02-14T21:00:30.871Z,1.50
2023-02-14T21:02:59.849Z,1.50
2023-02-14T21:05:28.800Z,1.40
2023-02-14T21:07:58.210Z,1.50
2023-02-14T21:10:27.557Z,1.50
2023-02-14T21:12:55.627Z,1.50
2023-02-14T21:15:23.901Z,1.50
2023-02-14T21:17:51.896Z,1.50
2023-02-14T21:20:20.631Z,1.50
2023-02-14T21:23:00.572Z,1.50
2023-02-14T21:25:30.890Z,1.50
2023-02-14T21:27:59.019Z,1.60
2023-02-14T21:30:30.881Z,1.60
2023-02-14T21:33:00.209Z,1.50
2023-02-14T21:35:28.273Z,1.50
2023-02-14T21:38:00.641Z,1.50
2023-02-14T21:40:29.009Z,1.60
2023-02-14T21:42:59.747Z,1.60
2023-02-14T21:45:45.495Z,1.60
2023-02-14T21:48:30.917Z,1.60
2023-02-14T21:51:06.329Z,1.50
2023-02-14T21:53:36.178Z,1.50
2023-02-14T21:56:09.680Z,1.30
2023-02-14T21:58:37.929Z,1.30
2023-02-14T22:01:06.229Z,1.30
2023-02-14T22:03:35.084Z,1.30
2023-02-14T22:06:03.992Z,1.30
2023-02-14T22:08:32.991Z,1.20
2023-02-14T22:11:06.286Z,1.30
2023-02-14T22:13:34.912Z,1.40
2023-02-14T22:16:03.410Z,1.40
2023-02-14T22:18:32.122Z,1.30
2023-02-14T22:21:04.236Z,1.20
2023-02-14T22:23:32.795Z,1.30
2023-02-14T22:26:11.086Z,1.30
2023-02-14T22:28:39.167Z,1.20
2023-02-14T22:31:07.994Z,1.20
2023-02-14T22:33:37.929Z,1.20
2023-02-14T22:36:07.310Z,1.20
2023-02-14T22:38:36.186Z,1.20
2023-02-14T22:41:10.858Z,1.20
2023-02-14T22:43:39.648Z,1.30
2023-02-14T22:46:09.406Z,1.20
2023-02-14T22:48:38.341Z,1.30
2023-02-14T22:51:11.531Z,1.30
2023-02-14T22:53:40.201Z,1.30
2023-02-14T22:56:17.878Z,1.20
2023-02-14T22:58:46.855Z,1.30
2023-02-14T23:01:16.524Z,1.30
2023-02-14T23:03:44.665Z,1.20
2023-02-14T23:06:13.547Z,1.30
2023-02-14T23:08:42.223Z,1.20
2023-02-14T23:11:12.353Z,1.20
2023-02-14T23:13:59.527Z,1.10
2023-02-14T23:16:48.100Z,1.10
2023-02-14T23:19:35.215Z,1.20
2023-02-14T23:22:05.568Z,1.20
2023-02-14T23:24:34.114Z,1.30
2023-02-14T23:27:03.244Z,1.40
2023-02-14T23:29:33.090Z,1.40
2023-02-14T23:32:01.301Z,1.20
2023-02-14T23:34:31.726Z,1.10
2023-02-14T23:36:59.700Z,1.10
2023-02-14T23:39:28.364Z,1.20
2023-02-14T23:41:56.415Z,1.10
2023-02-14T23:44:25.865Z,1.20
2023-02-14T23:46:57.467Z,1.40
2023-02-14T23:49:26.538Z,1.30
2023-02-14T23:51:56.432Z,1.40
2023-02-14T23:54:25.501Z,1.30
2023-02-14T23:56:54.044Z,1.20
2023-02-14T23:59:26.227Z,1.10
